sensor_id;sensor_type;location;lat;lon;timestamp;temperature;humidity
16485;DHT22;8353;47.856;12.344;2022-10-28T00:01:59;14.50;99.90
16485;DHT22;8353;47.856;12.344;2022-10-28T00:04:29;14.60;99.90
16485;DHT22;8353;47.856;12.344;2022-10-28T00:07:01;14.70;99.90
16485;DHT22;8353;47.856;12.344;2022-10-28T00:09:32;14.70;99.90
16485;DHT22;8353;47.856;12.344;2022-10-28T00:12:03;14.80;99.90
16485;DHT22;8353;47.856;12.344;2022-10-28T00:14:33;14.80;99.90
16485;DHT22;8353;47.856;12.344;2022-10-28T00:17:03;14.80;99.90
16485;DHT22;8353;47.856;12.344;2022-10-28T00:19:34;14.40;99.90
16485;DHT22;8353;47.856;12.344;2022-10-28T00:22:05;14.10;99.90
16485;DHT22;8353;47.856;12.344;2022-10-28T00:24:36;14.00;99.90
16485;DHT22;8353;47.856;12.344;2022-10-28T00:27:06;13.90;99.90
16485;DHT22;8353;47.856;12.344;2022-10-28T00:29:37;14.00;99.90
16485;DHT22;8353;47.856;12.344;2022-10-28T00:32:07;13.90;99.90
16485;DHT22;8353;47.856;12.344;2022-10-28T00:34:37;13.80;99.90
16485;DHT22;8353;47.856;12.344;2022-10-28T00:37:09;13.60;99.90
16485;DHT22;8353;47.856;12.344;2022-10-28T00:39:40;13.70;99.90
16485;DHT22;8353;47.856;12.344;2022-10-28T00:42:19;13.90;99.90
16485;DHT22;8353;47.856;12.344;2022-10-28T00:44:55;14.00;99.90
16485;DHT22;8353;47.856;12.344;2022-10-28T00:47:32;14.00;99.90
16485;DHT22;8353;47.856;12.344;2022-10-28T00:50:14;13.80;99.90
16485;DHT22;8353;47.856;12.344;2022-10-28T00:52:51;13.70;99.90
16485;DHT22;8353;47.856;12.344;2022-10-28T00:55:23;13.70;99.90
16485;DHT22;8353;47.856;12.344;2022-10-28T00:57:56;13.80;99.90
16485;DHT22;8353;47.856;12.344;2022-10-28T01:00:28;13.90;99.90
16485;DHT22;8353;47.856;12.344;2022-10-28T01:03:00;14.00;99.90
16485;DHT22;8353;47.856;12.344;2022-10-28T01:05:33;14.20;99.90
16485;DHT22;8353;47.856;12.344;2022-10-28T01:08:07;14.30;99.90
16485;DHT22;8353;47.856;12.344;2022-10-28T01:10:51;14.30;99.90
16485;DHT22;8353;47.856;12.344;2022-10-28T01:13:35;14.30;99.90
16485;DHT22;8353;47.856;12.344;2022-10-28T01:16:15;14.20;99.90
16485;DHT22;8353;47.856;12.344;2022-10-28T01:18:59;13.90;99.90
16485;DHT22;8353;47.856;12.344;2022-10-28T01:21:51;13.50;99.90
16485;DHT22;8353;47.856;12.344;2022-10-28T01:25:06;13.50;99.90
16485;DHT22;8353;47.856;12.344;2022-10-28T01:27:59;13.50;99.90
16485;DHT22;8353;47.856;12.344;2022-10-28T01:33:35;13.60;99.90
16485;DHT22;8353;47.856;12.344;2022-10-28T01:36:13;13.90;99.90
16485;DHT22;8353;47.856;12.344;2022-10-28T01:38:49;13.70;99.90
16485;DHT22;8353;47.856;12.344;2022-10-28T01:41:28;13.70;99.90
16485;DHT22;8353;47.856;12.344;2022-10-28T01:44:04;13.80;99.90
16485;DHT22;8353;47.856;12.344;2022-10-28T01:46:38;13.70;99.90
16485;DHT22;8353;47.856;12.344;2022-10-28T01:49:18;13.60;99.90
16485;DHT22;8353;47.856;12.344;2022-10-28T01:51:52;13.50;99.90
16485;DHT22;8353;47.856;12.344;2022-10-28T01:54:26;13.40;99.90
16485;DHT22;8353;47.856;12.344;2022-10-28T01:57:00;13.50;99.90
16485;DHT22;8353;47.856;12.344;2022-10-28T01:59:33;13.40;99.90
16485;DHT22;8353;47.856;12.344;2022-10-28T02:02:04;13.60;99.90
16485;DHT22;8353;47.856;12.344;2022-10-28T02:04:37;13.70;99.90
16485;DHT22;8353;47.856;12.344;2022-10-28T02:07:07;13.70;99.90
16485;DHT22;8353;47.856;12.344;2022-10-28T02:09:50;13.60;99.90
16485;DHT22;8353;47.856;12.344;2022-10-28T02:12:28;13.70;99.90
16485;DHT22;8353;47.856;12.344;2022-10-28T02:15:29;13.80;99.90
16485;DHT22;8353;47.856;12.344;2022-10-28T02:18:11;13.70;99.90
16485;DHT22;8353;47.856;12.344;2022-10-28T02:20:50;13.50;99.90
16485;DHT22;8353;47.856;12.344;2022-10-28T02:23:28;13.50;99.90
16485;DHT22;8353;47.856;12.344;2022-10-28T02:26:09;13.30;99.90
16485;DHT22;8353;47.856;12.344;2022-10-28T02:28:49;13.20;99.90
16485;DHT22;8353;47.856;12.344;2022-10-28T02:31:27;13.40;99.90
16485;DHT22;8353;47.856;12.344;2022-10-28T02:34:02;13.30;99.90
16485;DHT22;8353;47.856;12.344;2022-10-28T02:36:39;13.50;99.90
16485;DHT22;8353;47.856;12.344;2022-10-28T02:39:13;13.40;99.90
16485;DHT22;8353;47.856;12.344;2022-10-28T02:41:49;13.40;99.90
16485;DHT22;8353;47.856;12.344;2022-10-28T02:44:24;13.50;99.90
16485;DHT22;8353;47.856;12.344;2022-10-28T02:46:58;13.40;99.90
16485;DHT22;8353;47.856;12.344;2022-10-28T02:49:32;13.10;99.90
16485;DHT22;8353;47.856;12.344;2022-10-28T02:52:06;12.90;99.90
16485;DHT22;8353;47.856;12.344;2022-10-28T02:54:39;13.00;99.90
16485;DHT22;8353;47.856;12.344;2022-10-28T02:57:13;13.10;99.90
16485;DHT22;8353;47.856;12.344;2022-10-28T02:59:51;13.20;99.90
16485;DHT22;8353;47.856;12.344;2022-10-28T03:02:21;13.10;99.90
16485;DHT22;8353;47.856;12.344;2022-10-28T03:04:52;13.30;99.90
16485;DHT22;8353;47.856;12.344;2022-10-28T03:07:24;13.60;99.90
16485;DHT22;8353;47.856;12.344;2022-10-28T03:09:55;13.70;99.90
16485;DHT22;8353;47.856;12.344;2022-10-28T03:12:25;13.80;99.90
16485;DHT22;8353;47.856;12.344;2022-10-28T03:14:56;13.80;99.90
16485;DHT22;8353;47.856;12.344;2022-10-28T03:17:26;13.80;99.90
16485;DHT22;8353;47.856;12.344;2022-10-28T03:19:57;13.70;99.90
16485;DHT22;8353;47.856;12.344;2022-10-28T03:22:29;13.80;99.90
16485;DHT22;8353;47.856;12.344;2022-10-28T03:24:59;13.80;99.90
16485;DHT22;8353;47.856;12.344;2022-10-28T03:27:30;13.80;99.90
16485;DHT22;8353;47.856;12.344;2022-10-28T03:30:01;13.90;99.90
16485;DHT22;8353;47.856;12.344;2022-10-28T03:32:31;13.50;99.90
16485;DHT22;8353;47.856;12.344;2022-10-28T03:35:01;13.30;99.90
16485;DHT22;8353;47.856;12.344;2022-10-28T03:37:33;13.20;99.90
16485;DHT22;8353;47.856;12.344;2022-10-28T03:40:05;13.00;99.90
16485;DHT22;8353;47.856;12.344;2022-10-28T03:42:36;12.90;99.90
16485;DHT22;8353;47.856;12.344;2022-10-28T03:45:06;12.90;99.90
16485;DHT22;8353;47.856;12.344;2022-10-28T03:47:37;13.00;99.90
16485;DHT22;8353;47.856;12.344;2022-10-28T03:50:08;12.90;99.90
16485;DHT22;8353;47.856;12.344;2022-10-28T03:52:41;12.80;99.90
16485;DHT22;8353;47.856;12.344;2022-10-28T03:55:12;13.00;99.90
16485;DHT22;8353;47.856;12.344;2022-10-28T03:57:42;13.10;99.90
16485;DHT22;8353;47.856;12.344;2022-10-28T04:00:14;13.20;99.90
16485;DHT22;8353;47.856;12.344;2022-10-28T04:02:48;13.20;99.90
16485;DHT22;8353;47.856;12.344;2022-10-28T04:05:20;13.30;99.90
16485;DHT22;8353;47.856;12.344;2022-10-28T04:07:52;13.30;99.90
16485;DHT22;8353;47.856;12.344;2022-10-28T04:10:23;13.30;99.90
16485;DHT22;8353;47.856;12.344;2022-10-28T04:12:58;13.30;99.90
16485;DHT22;8353;47.856;12.344;2022-10-28T04:15:30;13.20;99.90
16485;DHT22;8353;47.856;12.344;2022-10-28T04:18:01;13.20;99.90
16485;DHT22;8353;47.856;12.344;2022-10-28T04:20:32;13.20;99.90
16485;DHT22;8353;47.856;12.344;2022-10-28T04:23:04;13.10;99.90
16485;DHT22;8353;47.856;12.344;2022-10-28T04:25:34;13.20;99.90
16485;DHT22;8353;47.856;12.344;2022-10-28T04:28:05;13.00;99.90
16485;DHT22;8353;47.856;12.344;2022-10-28T04:30:35;13.10;99.90
16485;DHT22;8353;47.856;12.344;2022-10-28T04:33:07;13.20;99.90
16485;DHT22;8353;47.856;12.344;2022-10-28T04:35:38;13.30;99.90
16485;DHT22;8353;47.856;12.344;2022-10-28T04:38:12;13.30;99.90
16485;DHT22;8353;47.856;12.344;2022-10-28T04:40:46;13.10;99.90
16485;DHT22;8353;47.856;12.344;2022-10-28T04:43:16;13.10;99.90
16485;DHT22;8353;47.856;12.344;2022-10-28T04:45:47;13.00;99.90
16485;DHT22;8353;47.856;12.344;2022-10-28T04:48:17;13.00;99.90
16485;DHT22;8353;47.856;12.344;2022-10-28T04:50:47;12.90;99.90
16485;DHT22;8353;47.856;12.344;2022-10-28T04:53:20;12.90;99.90
16485;DHT22;8353;47.856;12.344;2022-10-28T04:55:53;12.80;99.90
16485;DHT22;8353;47.856;12.344;2022-10-28T04:58:25;12.90;99.90
16485;DHT22;8353;47.856;12.344;2022-10-28T05:00:56;12.90;99.90
16485;DHT22;8353;47.856;12.344;2022-10-28T05:03:27;13.00;99.90
16485;DHT22;8353;47.856;12.344;2022-10-28T05:05:57;12.90;99.90
16485;DHT22;8353;47.856;12.344;2022-10-28T05:08:29;12.70;99.90
16485;DHT22;8353;47.856;12.344;2022-10-28T05:11:00;12.60;99.90
16485;DHT22;8353;47.856;12.344;2022-10-28T05:13:30;12.60;99.90
16485;DHT22;8353;47.856;12.344;2022-10-28T05:16:01;12.50;99.90
16485;DHT22;8353;47.856;12.344;2022-10-28T05:18:31;12.50;99.90
16485;DHT22;8353;47.856;12.344;2022-10-28T05:21:02;12.70;99.90
16485;DHT22;8353;47.856;12.344;2022-10-28T05:23:35;12.70;99.90
16485;DHT22;8353;47.856;12.344;2022-10-28T05:26:05;12.80;99.90
16485;DHT22;8353;47.856;12.344;2022-10-28T05:28:35;12.80;99.90
16485;DHT22;8353;47.856;12.344;2022-10-28T05:31:06;12.90;99.90
16485;DHT22;8353;47.856;12.344;2022-10-28T05:33:36;13.20;99.90
16485;DHT22;8353;47.856;12.344;2022-10-28T05:36:07;13.20;99.90
16485;DHT22;8353;47.856;12.344;2022-10-28T05:38:39;13.30;99.90
16485;DHT22;8353;47.856;12.344;2022-10-28T05:41:10;13.20;99.90
16485;DHT22;8353;47.856;12.344;2022-10-28T05:43:41;13.20;99.90
16485;DHT22;8353;47.856;12.344;2022-10-28T05:46:12;13.30;99.90
16485;DHT22;8353;47.856;12.344;2022-10-28T05:48:42;13.30;99.90
16485;DHT22;8353;47.856;12.344;2022-10-28T05:51:13;13.20;99.90
16485;DHT22;8353;47.856;12.344;2022-10-28T05:53:45;13.20;99.90
16485;DHT22;8353;47.856;12.344;2022-10-28T05:56:16;13.20;99.90
16485;DHT22;8353;47.856;12.344;2022-10-28T05:58:46;13.10;99.90
16485;DHT22;8353;47.856;12.344;2022-10-28T06:01:17;13.20;99.90
16485;DHT22;8353;47.856;12.344;2022-10-28T06:03:48;13.20;99.90
16485;DHT22;8353;47.856;12.344;2022-10-28T06:06:18;13.20;99.90
16485;DHT22;8353;47.856;12.344;2022-10-28T06:08:51;13.20;99.90
16485;DHT22;8353;47.856;12.344;2022-10-28T06:11:21;13.20;99.90
16485;DHT22;8353;47.856;12.344;2022-10-28T06:13:52;13.20;99.90
16485;DHT22;8353;47.856;12.344;2022-10-28T06:16:23;13.10;99.90
16485;DHT22;8353;47.856;12.344;2022-10-28T06:18:53;13.10;99.90
16485;DHT22;8353;47.856;12.344;2022-10-28T06:21:24;13.10;99.90
16485;DHT22;8353;47.856;12.344;2022-10-28T06:23:56;13.30;99.90
16485;DHT22;8353;47.856;12.344;2022-10-28T06:26:26;13.30;99.90
16485;DHT22;8353;47.856;12.344;2022-10-28T06:28:57;13.30;99.90
16485;DHT22;8353;47.856;12.344;2022-10-28T06:31:27;13.30;99.90
16485;DHT22;8353;47.856;12.344;2022-10-28T06:33:58;13.20;99.90
16485;DHT22;8353;47.856;12.344;2022-10-28T06:36:28;13.10;99.90
16485;DHT22;8353;47.856;12.344;2022-10-28T06:39:00;13.40;99.90
16485;DHT22;8353;47.856;12.344;2022-10-28T06:41:30;13.60;99.90
16485;DHT22;8353;47.856;12.344;2022-10-28T06:44:01;13.60;99.90
16485;DHT22;8353;47.856;12.344;2022-10-28T06:46:31;13.70;99.90
16485;DHT22;8353;47.856;12.344;2022-10-28T06:49:02;13.80;99.90
16485;DHT22;8353;47.856;12.344;2022-10-28T06:51:33;13.90;99.90
16485;DHT22;8353;47.856;12.344;2022-10-28T06:54:05;14.20;99.90
16485;DHT22;8353;47.856;12.344;2022-10-28T06:56:36;14.40;99.90
16485;DHT22;8353;47.856;12.344;2022-10-28T06:59:08;14.40;99.90
16485;DHT22;8353;47.856;12.344;2022-10-28T07:01:38;14.60;99.90
16485;DHT22;8353;47.856;12.344;2022-10-28T07:04:10;14.70;99.90
16485;DHT22;8353;47.856;12.344;2022-10-28T07:06:41;14.80;99.90
16485;DHT22;8353;47.856;12.344;2022-10-28T07:09:13;14.80;99.90
16485;DHT22;8353;47.856;12.344;2022-10-28T07:11:47;14.80;99.90
16485;DHT22;8353;47.856;12.344;2022-10-28T07:14:18;14.80;99.90
16485;DHT22;8353;47.856;12.344;2022-10-28T07:16:48;14.80;99.90
16485;DHT22;8353;47.856;12.344;2022-10-28T07:19:19;15.00;99.90
16485;DHT22;8353;47.856;12.344;2022-10-28T07:21:49;14.90;99.90
16485;DHT22;8353;47.856;12.344;2022-10-28T07:24:21;15.10;99.90
16485;DHT22;8353;47.856;12.344;2022-10-28T07:26:51;15.10;99.90
16485;DHT22;8353;47.856;12.344;2022-10-28T07:29:21;15.20;99.90
16485;DHT22;8353;47.856;12.344;2022-10-28T07:31:53;15.50;99.90
16485;DHT22;8353;47.856;12.344;2022-10-28T07:34:23;15.70;99.90
16485;DHT22;8353;47.856;12.344;2022-10-28T07:36:54;15.70;99.90
16485;DHT22;8353;47.856;12.344;2022-10-28T07:39:26;15.70;99.90
16485;DHT22;8353;47.856;12.344;2022-10-28T07:41:56;15.80;99.90
16485;DHT22;8353;47.856;12.344;2022-10-28T07:44:29;15.90;99.90
16485;DHT22;8353;47.856;12.344;2022-10-28T07:47:00;16.00;99.90
16485;DHT22;8353;47.856;12.344;2022-10-28T07:49:30;16.10;99.90
16485;DHT22;8353;47.856;12.344;2022-10-28T07:52:00;16.20;99.90
16485;DHT22;8353;47.856;12.344;2022-10-28T07:55:23;16.30;99.90
16485;DHT22;8353;47.856;12.344;2022-10-28T07:57:39;16.40;99.90
16485;DHT22;8353;47.856;12.344;2022-10-28T08:00:11;16.60;99.90
16485;DHT22;8353;47.856;12.344;2022-10-28T08:02:41;16.80;99.90
16485;DHT22;8353;47.856;12.344;2022-10-28T08:05:11;17.00;99.90
16485;DHT22;8353;47.856;12.344;2022-10-28T08:07:42;17.00;99.90
16485;DHT22;8353;47.856;12.344;2022-10-28T08:10:16;17.20;99.90
16485;DHT22;8353;47.856;12.344;2022-10-28T08:12:47;17.40;99.90
16485;DHT22;8353;47.856;12.344;2022-10-28T08:15:18;17.50;99.90
16485;DHT22;8353;47.856;12.344;2022-10-28T08:17:52;17.70;99.90
16485;DHT22;8353;47.856;12.344;2022-10-28T08:20:22;17.70;99.90
16485;DHT22;8353;47.856;12.344;2022-10-28T08:22:53;17.80;99.90
16485;DHT22;8353;47.856;12.344;2022-10-28T08:25:25;17.90;99.90
16485;DHT22;8353;47.856;12.344;2022-10-28T08:27:56;18.10;99.90
16485;DHT22;8353;47.856;12.344;2022-10-28T08:30:27;18.30;99.90
16485;DHT22;8353;47.856;12.344;2022-10-28T08:32:57;18.30;99.90
16485;DHT22;8353;47.856;12.344;2022-10-28T08:35:27;18.30;99.90
16485;DHT22;8353;47.856;12.344;2022-10-28T08:37:58;18.40;99.90
16485;DHT22;8353;47.856;12.344;2022-10-28T08:40:35;18.50;99.90
16485;DHT22;8353;47.856;12.344;2022-10-28T08:43:15;18.60;99.90
16485;DHT22;8353;47.856;12.344;2022-10-28T08:45:50;18.80;99.90
16485;DHT22;8353;47.856;12.344;2022-10-28T08:48:27;19.00;99.90
16485;DHT22;8353;47.856;12.344;2022-10-28T08:51:04;19.30;99.90
16485;DHT22;8353;47.856;12.344;2022-10-28T08:53:42;19.50;99.90
16485;DHT22;8353;47.856;12.344;2022-10-28T08:56:30;19.60;99.90
16485;DHT22;8353;47.856;12.344;2022-10-28T08:59:05;19.80;99.90
16485;DHT22;8353;47.856;12.344;2022-10-28T09:01:41;20.30;99.90
16485;DHT22;8353;47.856;12.344;2022-10-28T09:04:21;20.60;99.90
16485;DHT22;8353;47.856;12.344;2022-10-28T09:06:53;20.90;99.90
16485;DHT22;8353;47.856;12.344;2022-10-28T09:09:23;20.90;99.90
16485;DHT22;8353;47.856;12.344;2022-10-28T09:12:07;21.00;99.90
16485;DHT22;8353;47.856;12.344;2022-10-28T09:14:53;21.10;99.90
16485;DHT22;8353;47.856;12.344;2022-10-28T09:17:36;21.10;99.90
16485;DHT22;8353;47.856;12.344;2022-10-28T09:20:16;21.00;99.90
16485;DHT22;8353;47.856;12.344;2022-10-28T09:22:54;21.00;99.90
16485;DHT22;8353;47.856;12.344;2022-10-28T09:25:32;21.10;99.90
16485;DHT22;8353;47.856;12.344;2022-10-28T09:28:17;20.90;99.90
16485;DHT22;8353;47.856;12.344;2022-10-28T09:30:55;21.00;99.90
16485;DHT22;8353;47.856;12.344;2022-10-28T09:33:42;20.90;99.90
16485;DHT22;8353;47.856;12.344;2022-10-28T09:36:20;21.00;99.90
16485;DHT22;8353;47.856;12.344;2022-10-28T09:38:55;20.90;99.90
16485;DHT22;8353;47.856;12.344;2022-10-28T09:41:28;20.90;99.90
16485;DHT22;8353;47.856;12.344;2022-10-28T09:44:07;20.90;99.90
16485;DHT22;8353;47.856;12.344;2022-10-28T09:46:40;20.90;99.90
16485;DHT22;8353;47.856;12.344;2022-10-28T09:49:15;20.90;99.90
16485;DHT22;8353;47.856;12.344;2022-10-28T09:51:49;20.90;99.90
16485;DHT22;8353;47.856;12.344;2022-10-28T09:54:28;20.90;99.90
16485;DHT22;8353;47.856;12.344;2022-10-28T09:56:59;20.90;99.90
16485;DHT22;8353;47.856;12.344;2022-10-28T09:59:31;21.20;99.90
16485;DHT22;8353;47.856;12.344;2022-10-28T10:02:03;21.30;99.90
16485;DHT22;8353;47.856;12.344;2022-10-28T10:04:33;21.40;99.90
16485;DHT22;8353;47.856;12.344;2022-10-28T10:07:07;21.70;99.90
16485;DHT22;8353;47.856;12.344;2022-10-28T10:09:38;21.60;99.90
16485;DHT22;8353;47.856;12.344;2022-10-28T10:12:10;22.00;99.90
16485;DHT22;8353;47.856;12.344;2022-10-28T10:14:45;22.30;99.90
16485;DHT22;8353;47.856;12.344;2022-10-28T10:17:20;22.60;99.90
16485;DHT22;8353;47.856;12.344;2022-10-28T10:19:59;22.70;99.90
16485;DHT22;8353;47.856;12.344;2022-10-28T10:22:32;22.90;99.90
16485;DHT22;8353;47.856;12.344;2022-10-28T10:25:05;23.20;99.90
16485;DHT22;8353;47.856;12.344;2022-10-28T10:27:52;23.10;99.90
16485;DHT22;8353;47.856;12.344;2022-10-28T10:30:26;23.10;99.90
16485;DHT22;8353;47.856;12.344;2022-10-28T10:33:00;23.30;99.90
16485;DHT22;8353;47.856;12.344;2022-10-28T10:35:34;23.50;99.90
16485;DHT22;8353;47.856;12.344;2022-10-28T10:38:12;23.40;99.90
16485;DHT22;8353;47.856;12.344;2022-10-28T10:40:48;23.60;99.90
16485;DHT22;8353;47.856;12.344;2022-10-28T10:43:21;23.90;99.90
16485;DHT22;8353;47.856;12.344;2022-10-28T10:46:05;23.90;99.90
16485;DHT22;8353;47.856;12.344;2022-10-28T10:48:42;24.00;99.90
16485;DHT22;8353;47.856;12.344;2022-10-28T10:51:17;23.70;99.90
16485;DHT22;8353;47.856;12.344;2022-10-28T10:53:54;23.70;99.90
16485;DHT22;8353;47.856;12.344;2022-10-28T10:56:28;23.70;99.90
16485;DHT22;8353;47.856;12.344;2022-10-28T10:59:01;23.60;99.90
16485;DHT22;8353;47.856;12.344;2022-10-28T11:01:34;23.60;99.90
16485;DHT22;8353;47.856;12.344;2022-10-28T11:04:06;23.60;99.90
16485;DHT22;8353;47.856;12.344;2022-10-28T11:06:40;23.60;99.90
16485;DHT22;8353;47.856;12.344;2022-10-28T11:09:19;23.50;99.90
16485;DHT22;8353;47.856;12.344;2022-10-28T11:11:51;23.70;99.90
16485;DHT22;8353;47.856;12.344;2022-10-28T11:14:25;23.70;99.90
16485;DHT22;8353;47.856;12.344;2022-10-28T11:17:00;23.60;99.90
16485;DHT22;8353;47.856;12.344;2022-10-28T11:19:32;23.70;99.90
16485;DHT22;8353;47.856;12.344;2022-10-28T11:22:20;23.70;99.90
16485;DHT22;8353;47.856;12.344;2022-10-28T11:25:09;23.80;99.90
16485;DHT22;8353;47.856;12.344;2022-10-28T11:27:52;23.90;99.90
16485;DHT22;8353;47.856;12.344;2022-10-28T11:30:32;24.00;99.90
16485;DHT22;8353;47.856;12.344;2022-10-28T11:33:12;24.10;99.90
16485;DHT22;8353;47.856;12.344;2022-10-28T11:35:58;24.20;99.90
16485;DHT22;8353;47.856;12.344;2022-10-28T11:38:40;24.20;99.90
16485;DHT22;8353;47.856;12.344;2022-10-28T11:41:21;24.40;99.90
16485;DHT22;8353;47.856;12.344;2022-10-28T11:43:55;24.30;99.90
16485;DHT22;8353;47.856;12.344;2022-10-28T11:46:35;24.60;99.90
16485;DHT22;8353;47.856;12.344;2022-10-28T11:52:39;24.60;99.90
16485;DHT22;8353;47.856;12.344;2022-10-28T11:55:20;24.50;99.90
16485;DHT22;8353;47.856;12.344;2022-10-28T11:58:02;24.40;99.90
16485;DHT22;8353;47.856;12.344;2022-10-28T12:00:42;24.40;99.90
16485;DHT22;8353;47.856;12.344;2022-10-28T12:06:43;24.40;99.90
16485;DHT22;8353;47.856;12.344;2022-10-28T12:09:26;24.40;99.90
16485;DHT22;8353;47.856;12.344;2022-10-28T12:12:10;24.40;99.90
16485;DHT22;8353;47.856;12.344;2022-10-28T12:14:49;24.40;99.90
16485;DHT22;8353;47.856;12.344;2022-10-28T12:17:27;24.30;99.90
16485;DHT22;8353;47.856;12.344;2022-10-28T12:20:00;24.30;99.90
16485;DHT22;8353;47.856;12.344;2022-10-28T12:22:35;24.30;99.90
16485;DHT22;8353;47.856;12.344;2022-10-28T12:25:14;24.30;99.90
16485;DHT22;8353;47.856;12.344;2022-10-28T12:27:48;24.40;99.90
16485;DHT22;8353;47.856;12.344;2022-10-28T12:30:21;24.60;99.90
16485;DHT22;8353;47.856;12.344;2022-10-28T12:32:58;24.80;99.90
16485;DHT22;8353;47.856;12.344;2022-10-28T12:35:33;24.90;99.90
16485;DHT22;8353;47.856;12.344;2022-10-28T12:38:10;25.00;99.90
16485;DHT22;8353;47.856;12.344;2022-10-28T12:40:50;24.80;99.90
16485;DHT22;8353;47.856;12.344;2022-10-28T12:43:25;24.70;99.90
16485;DHT22;8353;47.856;12.344;2022-10-28T12:45:59;24.60;99.90
16485;DHT22;8353;47.856;12.344;2022-10-28T12:48:34;24.60;99.90
16485;DHT22;8353;47.856;12.344;2022-10-28T12:51:11;24.80;99.90
16485;DHT22;8353;47.856;12.344;2022-10-28T12:53:47;24.90;99.90
16485;DHT22;8353;47.856;12.344;2022-10-28T12:56:25;25.10;99.90
16485;DHT22;8353;47.856;12.344;2022-10-28T12:59:03;25.30;99.90
16485;DHT22;8353;47.856;12.344;2022-10-28T13:01:35;25.40;99.90
16485;DHT22;8353;47.856;12.344;2022-10-28T13:04:05;25.30;99.90
16485;DHT22;8353;47.856;12.344;2022-10-28T13:06:55;25.30;99.90
16485;DHT22;8353;47.856;12.344;2022-10-28T13:09:43;25.20;99.90
16485;DHT22;8353;47.856;12.344;2022-10-28T13:12:42;25.20;99.90
16485;DHT22;8353;47.856;12.344;2022-10-28T13:15:41;25.10;99.90
16485;DHT22;8353;47.856;12.344;2022-10-28T13:21:29;24.90;99.90
16485;DHT22;8353;47.856;12.344;2022-10-28T13:24:05;24.80;99.90
16485;DHT22;8353;47.856;12.344;2022-10-28T13:26:42;24.70;99.90
16485;DHT22;8353;47.856;12.344;2022-10-28T13:29:21;24.70;99.90
16485;DHT22;8353;47.856;12.344;2022-10-28T13:31:52;24.80;99.90
16485;DHT22;8353;47.856;12.344;2022-10-28T13:34:30;24.50;99.90
16485;DHT22;8353;47.856;12.344;2022-10-28T13:37:03;24.60;99.90
16485;DHT22;8353;47.856;12.344;2022-10-28T13:39:41;24.50;99.90
16485;DHT22;8353;47.856;12.344;2022-10-28T13:42:43;24.30;99.90
16485;DHT22;8353;47.856;12.344;2022-10-28T13:45:45;24.20;99.90
16485;DHT22;8353;47.856;12.344;2022-10-28T13:48:45;24.20;99.90
16485;DHT22;8353;47.856;12.344;2022-10-28T13:51:32;24.40;99.90
16485;DHT22;8353;47.856;12.344;2022-10-28T13:54:13;24.50;99.90
16485;DHT22;8353;47.856;12.344;2022-10-28T13:56:54;24.70;99.90
16485;DHT22;8353;47.856;12.344;2022-10-28T14:02:29;24.70;99.90
16485;DHT22;8353;47.856;12.344;2022-10-28T14:05:06;24.90;99.90
16485;DHT22;8353;47.856;12.344;2022-10-28T14:07:49;24.90;99.90
16485;DHT22;8353;47.856;12.344;2022-10-28T14:10:22;25.10;99.90
16485;DHT22;8353;47.856;12.344;2022-10-28T14:12:54;25.10;99.90
16485;DHT22;8353;47.856;12.344;2022-10-28T14:15:28;25.20;99.90
16485;DHT22;8353;47.856;12.344;2022-10-28T14:18:03;25.10;99.90
16485;DHT22;8353;47.856;12.344;2022-10-28T14:20:35;24.80;99.90
16485;DHT22;8353;47.856;12.344;2022-10-28T14:26:11;25.00;99.90
16485;DHT22;8353;47.856;12.344;2022-10-28T14:28:49;25.10;99.90
16485;DHT22;8353;47.856;12.344;2022-10-28T14:31:39;25.20;99.90
16485;DHT22;8353;47.856;12.344;2022-10-28T14:34:37;25.10;99.90
16485;DHT22;8353;47.856;12.344;2022-10-28T14:40:30;25.00;99.90
16485;DHT22;8353;47.856;12.344;2022-10-28T14:43:13;25.00;99.90
16485;DHT22;8353;47.856;12.344;2022-10-28T14:45:59;24.90;99.90
16485;DHT22;8353;47.856;12.344;2022-10-28T14:48:45;24.80;99.90
16485;DHT22;8353;47.856;12.344;2022-10-28T14:51:21;24.80;99.90
16485;DHT22;8353;47.856;12.344;2022-10-28T14:53:55;24.80;99.90
16485;DHT22;8353;47.856;12.344;2022-10-28T14:56:27;24.90;99.90
16485;DHT22;8353;47.856;12.344;2022-10-28T14:59:02;24.70;99.90
16485;DHT22;8353;47.856;12.344;2022-10-28T15:01:45;24.40;99.90
16485;DHT22;8353;47.856;12.344;2022-10-28T15:04:19;24.20;99.90
16485;DHT22;8353;47.856;12.344;2022-10-28T15:06:52;24.20;99.90
16485;DHT22;8353;47.856;12.344;2022-10-28T15:09:24;23.90;99.90
16485;DHT22;8353;47.856;12.344;2022-10-28T15:11:57;23.90;99.90
16485;DHT22;8353;47.856;12.344;2022-10-28T15:14:31;23.80;99.90
16485;DHT22;8353;47.856;12.344;2022-10-28T15:17:10;23.70;99.90
16485;DHT22;8353;47.856;12.344;2022-10-28T15:19:42;23.60;99.90
16485;DHT22;8353;47.856;12.344;2022-10-28T15:22:17;23.70;99.90
16485;DHT22;8353;47.856;12.344;2022-10-28T15:24:53;23.60;99.90
16485;DHT22;8353;47.856;12.344;2022-10-28T15:27:26;23.60;99.90
16485;DHT22;8353;47.856;12.344;2022-10-28T15:29:57;23.50;99.90
16485;DHT22;8353;47.856;12.344;2022-10-28T15:32:30;23.50;99.90
16485;DHT22;8353;47.856;12.344;2022-10-28T15:35:23;23.40;99.90
16485;DHT22;8353;47.856;12.344;2022-10-28T15:37:59;23.30;99.90
16485;DHT22;8353;47.856;12.344;2022-10-28T15:40:30;23.20;99.90
16485;DHT22;8353;47.856;12.344;2022-10-28T15:43:03;23.10;99.90
16485;DHT22;8353;47.856;12.344;2022-10-28T15:45:34;23.00;99.90
16485;DHT22;8353;47.856;12.344;2022-10-28T15:48:11;23.00;99.90
16485;DHT22;8353;47.856;12.344;2022-10-28T15:50:42;22.90;99.90
16485;DHT22;8353;47.856;12.344;2022-10-28T15:53:31;22.70;99.90
16485;DHT22;8353;47.856;12.344;2022-10-28T15:56:12;22.60;99.90
16485;DHT22;8353;47.856;12.344;2022-10-28T15:58:46;22.60;99.90
16485;DHT22;8353;47.856;12.344;2022-10-28T16:01:30;22.50;99.90
16485;DHT22;8353;47.856;12.344;2022-10-28T16:04:39;22.30;99.90
16485;DHT22;8353;47.856;12.344;2022-10-28T16:07:10;22.30;99.90
16485;DHT22;8353;47.856;12.344;2022-10-28T16:09:45;22.20;99.90
16485;DHT22;8353;47.856;12.344;2022-10-28T16:12:18;22.20;99.90
16485;DHT22;8353;47.856;12.344;2022-10-28T16:14:54;22.20;99.90
16485;DHT22;8353;47.856;12.344;2022-10-28T16:17:28;22.10;99.90
16485;DHT22;8353;47.856;12.344;2022-10-28T16:20:08;22.00;99.90
16485;DHT22;8353;47.856;12.344;2022-10-28T16:22:40;22.00;99.90
16485;DHT22;8353;47.856;12.344;2022-10-28T16:25:15;21.90;99.90
16485;DHT22;8353;47.856;12.344;2022-10-28T16:27:46;21.80;99.90
16485;DHT22;8353;47.856;12.344;2022-10-28T16:30:17;21.70;99.90
16485;DHT22;8353;47.856;12.344;2022-10-28T16:32:48;21.60;99.90
16485;DHT22;8353;47.856;12.344;2022-10-28T16:35:21;21.50;99.90
16485;DHT22;8353;47.856;12.344;2022-10-28T16:37:52;21.40;99.90
16485;DHT22;8353;47.856;12.344;2022-10-28T16:40:24;21.30;99.90
16485;DHT22;8353;47.856;12.344;2022-10-28T16:42:54;21.30;99.90